createdAt,value
2022-09-21T00:01:59.665Z,100.00
2022-09-21T00:04:28.246Z,100.00
2022-09-21T00:06:57.543Z,100.00
2022-09-21T00:09:25.992Z,100.00
2022-09-21T00:11:58.304Z,100.00
2022-09-21T00:14:28.986Z,100.00
2022-09-21T00:16:57.840Z,100.00
2022-09-21T00:19:27.022Z,100.00
2022-09-21T00:21:56.661Z,100.00
2022-09-21T00:24:26.254Z,100.00
2022-09-21T00:26:55.770Z,100.00
2022-09-21T00:29:24.243Z,100.00
2022-09-21T00:31:58.983Z,100.00
2022-09-21T00:34:27.754Z,100.00
2022-09-21T00:36:57.051Z,100.00
2022-09-21T00:39:26.353Z,100.00
2022-09-21T00:41:56.290Z,100.00
2022-09-21T00:44:31.594Z,100.00
2022-09-21T00:47:04.814Z,100.00
2022-09-21T00:49:33.751Z,100.00
2022-09-21T00:52:04.410Z,100.00
2022-09-21T00:54:34.546Z,100.00
2022-09-21T00:57:03.159Z,100.00
2022-09-21T00:59:32.416Z,100.00
2022-09-21T01:02:04.489Z,100.00
2022-09-21T01:04:33.060Z,100.00
2022-09-21T01:07:04.728Z,100.00
2022-09-21T01:09:34.348Z,100.00
2022-09-21T01:12:13.338Z,100.00
2022-09-21T01:14:52.947Z,100.00
2022-09-21T01:17:32.005Z,100.00
2022-09-21T01:20:40.574Z,100.00
2022-09-21T01:23:32.947Z,100.00
2022-09-21T01:26:06.295Z,100.00
2022-09-21T01:28:52.583Z,100.00
2022-09-21T01:31:23.654Z,100.00
2022-09-21T01:33:54.292Z,100.00
2022-09-21T01:36:27.187Z,100.00
2022-09-21T01:38:57.185Z,100.00
2022-09-21T01:41:27.513Z,100.00
2022-09-21T01:44:00.996Z,100.00
2022-09-21T01:46:31.024Z,100.00
2022-09-21T01:49:01.349Z,100.00
2022-09-21T01:51:32.195Z,100.00
2022-09-21T01:54:04.914Z,100.00
2022-09-21T01:56:36.958Z,100.00
2022-09-21T01:59:10.179Z,100.00
2022-09-21T02:01:40.392Z,100.00
2022-09-21T02:04:11.086Z,100.00
2022-09-21T02:06:40.093Z,100.00
2022-09-21T02:09:09.363Z,100.00
2022-09-21T02:11:43.973Z,100.00
2022-09-21T02:14:18.241Z,100.00
2022-09-21T02:16:48.212Z,100.00
2022-09-21T02:19:22.289Z,100.00
2022-09-21T02:21:58.693Z,100.00
2022-09-21T02:24:36.658Z,100.00
2022-09-21T02:27:06.584Z,100.00
2022-09-21T02:29:45.202Z,100.00
2022-09-21T02:32:17.079Z,100.00
2022-09-21T02:34:46.987Z,100.00
2022-09-21T02:37:22.713Z,100.00
2022-09-21T02:39:58.253Z,100.00
2022-09-21T02:42:28.309Z,100.00
2022-09-21T02:45:01.056Z,100.00
2022-09-21T02:47:31.581Z,100.00
2022-09-21T02:50:01.457Z,100.00
2022-09-21T02:52:30.501Z,100.00
2022-09-21T02:54:59.170Z,100.00
2022-09-21T02:57:27.493Z,100.00
2022-09-21T02:59:56.026Z,100.00
2022-09-21T03:02:26.103Z,100.00
2022-09-21T03:04:54.899Z,100.00
2022-09-21T03:07:23.850Z,100.00
2022-09-21T03:09:52.882Z,100.00
2022-09-21T03:12:22.306Z,100.00
2022-09-21T03:14:51.425Z,100.00
2022-09-21T03:17:20.380Z,100.00
2022-09-21T03:19:55.296Z,100.00
2022-09-21T03:22:24.520Z,100.00
2022-09-21T03:24:57.699Z,100.00
2022-09-21T03:27:30.236Z,100.00
2022-09-21T03:30:02.459Z,100.00
2022-09-21T03:32:31.320Z,100.00
2022-09-21T03:35:04.754Z,100.00
2022-09-21T03:37:38.040Z,100.00
2022-09-21T03:40:13.028Z,100.00
2022-09-21T03:42:41.918Z,100.00
2022-09-21T03:45:13.147Z,100.00
2022-09-21T03:47:44.415Z,100.00
2022-09-21T03:50:14.655Z,100.00
2022-09-21T03:52:46.210Z,100.00
2022-09-21T03:55:18.204Z,100.00
2022-09-21T03:57:47.053Z,100.00
2022-09-21T04:00:16.143Z,100.00
2022-09-21T04:02:46.053Z,100.00
2022-09-21T04:05:17.462Z,100.00
2022-09-21T04:07:47.462Z,100.00
2022-09-21T04:10:20.175Z,100.00
2022-09-21T04:12:48.959Z,100.00
2022-09-21T04:15:19.797Z,100.00
2022-09-21T04:17:48.335Z,100.00
2022-09-21T04:20:18.564Z,100.00
2022-09-21T04:22:47.287Z,100.00
2022-09-21T04:25:15.864Z,100.00
2022-09-21T04:27:44.812Z,100.00
2022-09-21T04:30:14.500Z,100.00
2022-09-21T04:32:44.778Z,100.00
2022-09-21T04:35:14.286Z,100.00
2022-09-21T04:37:44.464Z,100.00
2022-09-21T04:40:13.331Z,100.00
2022-09-21T04:42:43.059Z,100.00
2022-09-21T04:45:12.636Z,100.00
2022-09-21T04:47:42.297Z,100.00
2022-09-21T04:50:11.330Z,100.00
2022-09-21T04:52:40.183Z,100.00
2022-09-21T04:55:11.193Z,100.00
2022-09-21T04:57:40.800Z,100.00
2022-09-21T05:00:10.889Z,100.00
2022-09-21T05:02:39.404Z,100.00
2022-09-21T05:05:09.518Z,100.00
2022-09-21T05:07:39.939Z,100.00
2022-09-21T05:10:13.124Z,100.00
2022-09-21T05:12:42.506Z,100.00
2022-09-21T05:15:12.747Z,100.00
2022-09-21T05:17:42.705Z,100.00
2022-09-21T05:20:12.041Z,100.00
2022-09-21T05:22:41.274Z,100.00
2022-09-21T05:25:12.609Z,100.00
2022-09-21T05:27:41.250Z,100.00
2022-09-21T05:30:11.948Z,100.00
2022-09-21T05:32:45.464Z,100.00
2022-09-21T05:35:18.893Z,100.00
2022-09-21T05:37:53.823Z,100.00
2022-09-21T05:40:24.399Z,100.00
2022-09-21T05:42:53.976Z,100.00
2022-09-21T05:45:23.432Z,100.00
2022-09-21T05:47:58.489Z,100.00
2022-09-21T05:50:33.156Z,100.00
2022-09-21T05:53:07.135Z,100.00
2022-09-21T05:55:41.345Z,100.00
2022-09-21T05:58:15.457Z,100.00
2022-09-21T06:00:46.167Z,100.00
2022-09-21T06:03:36.283Z,100.00
2022-09-21T06:06:04.583Z,100.00
2022-09-21T06:08:32.864Z,100.00
2022-09-21T06:11:03.427Z,100.00
2022-09-21T06:13:31.830Z,100.00
2022-09-21T06:16:03.381Z,100.00
2022-09-21T06:18:32.303Z,100.00
2022-09-21T06:21:00.851Z,100.00
2022-09-21T06:23:29.173Z,100.00
2022-09-21T06:25:58.818Z,100.00
2022-09-21T06:28:29.828Z,100.00
2022-09-21T06:31:13.773Z,100.00
2022-09-21T06:33:48.210Z,100.00
2022-09-21T06:36:17.451Z,100.00
2022-09-21T06:38:49.685Z,100.00
2022-09-21T06:41:21.264Z,100.00
2022-09-21T06:43:55.644Z,100.00
2022-09-21T06:46:24.158Z,100.00
2022-09-21T06:48:53.006Z,100.00
2022-09-21T06:51:22.523Z,100.00
2022-09-21T06:53:51.124Z,100.00
2022-09-21T06:56:22.811Z,100.00
2022-09-21T06:58:57.943Z,100.00
2022-09-21T07:01:26.537Z,100.00
2022-09-21T07:03:55.297Z,100.00
2022-09-21T07:06:23.652Z,100.00
2022-09-21T07:11:42.147Z,100.00
2022-09-21T07:14:17.440Z,100.00
2022-09-21T07:16:46.873Z,100.00
2022-09-21T07:19:16.551Z,100.00
2022-09-21T07:21:47.571Z,100.00
2022-09-21T07:24:16.818Z,100.00
2022-09-21T07:26:45.424Z,100.00
2022-09-21T07:29:17.615Z,100.00
2022-09-21T07:31:48.274Z,100.00
2022-09-21T07:34:17.273Z,100.00
2022-09-21T07:36:46.263Z,100.00
2022-09-21T07:39:15.055Z,100.00
2022-09-21T07:41:43.687Z,100.00
2022-09-21T07:44:12.622Z,100.00
2022-09-21T07:46:47.287Z,100.00
2022-09-21T07:49:17.191Z,100.00
2022-09-21T07:51:47.188Z,100.00
2022-09-21T07:54:16.687Z,100.00
2022-09-21T07:57:07.226Z,100.00
2022-09-21T07:59:35.368Z,100.00
2022-09-21T08:02:06.293Z,100.00
2022-09-21T08:04:35.327Z,100.00
2022-09-21T08:07:03.742Z,100.00
2022-09-21T08:09:32.423Z,100.00
2022-09-21T08:12:01.575Z,100.00
2022-09-21T08:14:29.811Z,100.00
2022-09-21T08:16:58.118Z,100.00
2022-09-21T08:19:28.646Z,100.00
2022-09-21T08:21:58.150Z,100.00
2022-09-21T08:24:30.203Z,100.00
2022-09-21T08:27:02.088Z,100.00
2022-09-21T08:29:30.742Z,100.00
2022-09-21T08:31:59.740Z,100.00
2022-09-21T08:34:30.968Z,100.00
2022-09-21T08:37:01.540Z,100.00
2022-09-21T08:39:29.971Z,100.00
2022-09-21T08:42:11.719Z,100.00
2022-09-21T08:44:41.182Z,100.00
2022-09-21T08:47:15.932Z,100.00
2022-09-21T08:49:49.415Z,100.00
2022-09-21T08:52:19.316Z,100.00
2022-09-21T08:54:50.759Z,100.00
2022-09-21T08:57:19.147Z,100.00
2022-09-21T08:59:49.459Z,100.00
2022-09-21T09:02:35.678Z,100.00
2022-09-21T09:05:10.671Z,100.00
2022-09-21T09:08:10.690Z,100.00
2022-09-21T09:10:39.964Z,100.00
2022-09-21T09:13:19.356Z,100.00
2022-09-21T09:16:00.178Z,100.00
2022-09-21T09:18:40.188Z,100.00
2022-09-21T09:21:19.437Z,100.00
2022-09-21T09:23:53.976Z,100.00
2022-09-21T09:26:24.495Z,100.00
2022-09-21T09:28:56.852Z,100.00
2022-09-21T09:31:26.928Z,100.00
2022-09-21T09:33:57.491Z,100.00
2022-09-21T09:36:53.787Z,100.00
2022-09-21T09:39:18.135Z,100.00
2022-09-21T09:42:05.382Z,100.00
2022-09-21T09:44:57.602Z,100.00
2022-09-21T09:47:32.900Z,100.00
2022-09-21T09:50:05.751Z,97.35
2022-09-21T09:52:36.214Z,100.00
2022-09-21T09:55:15.868Z,99.23
2022-09-21T09:57:44.706Z,92.51
2022-09-21T10:00:15.193Z,94.05
2022-09-21T10:02:50.191Z,92.99
2022-09-21T10:05:23.758Z,92.65
2022-09-21T10:07:55.987Z,91.49
2022-09-21T10:10:33.244Z,90.03
2022-09-21T10:13:13.249Z,89.44
2022-09-21T10:15:46.293Z,88.53
2022-09-21T10:18:21.369Z,84.08
2022-09-21T10:21:00.234Z,89.32
2022-09-21T10:23:32.696Z,93.05
2022-09-21T10:26:03.679Z,90.76
2022-09-21T10:28:33.554Z,95.98
2022-09-21T10:31:13.252Z,93.99
2022-09-21T10:33:55.448Z,84.53
2022-09-21T10:36:32.484Z,81.45
2022-09-21T10:39:30.737Z,78.51
2022-09-21T10:42:04.268Z,80.69
2022-09-21T10:44:40.577Z,81.72
2022-09-21T10:47:19.945Z,84.54
2022-09-21T10:49:50.450Z,84.95
2022-09-21T10:52:21.809Z,85.02
2022-09-21T10:54:59.043Z,91.80
2022-09-21T10:57:27.912Z,85.02
2022-09-21T10:59:57.543Z,86.29
2022-09-21T11:02:30.309Z,89.78
2022-09-21T11:05:00.997Z,87.97
2022-09-21T11:07:32.498Z,82.68
2022-09-21T11:10:05.186Z,88.19
2022-09-21T11:12:38.046Z,85.66
2022-09-21T11:15:17.087Z,90.79
2022-09-21T11:17:49.911Z,89.71
2022-09-21T11:20:25.043Z,93.23
2022-09-21T11:23:00.775Z,83.15
2022-09-21T11:25:37.104Z,81.31
2022-09-21T11:28:13.538Z,77.96
2022-09-21T11:30:58.880Z,79.02
2022-09-21T11:33:37.262Z,80.43
2022-09-21T11:36:15.448Z,80.00
2022-09-21T11:38:53.703Z,80.90
2022-09-21T11:41:50.267Z,82.54
2022-09-21T11:44:27.690Z,82.50
2022-09-21T11:47:00.365Z,82.34
2022-09-21T11:50:07.852Z,83.67
2022-09-21T11:52:51.297Z,81.78
2022-09-21T11:55:27.391Z,84.82
2022-09-21T11:57:59.943Z,84.37
2022-09-21T12:00:29.983Z,86.08
2022-09-21T12:03:34.102Z,81.85
2022-09-21T12:06:32.818Z,80.83
2022-09-21T12:09:33.684Z,80.77
2022-09-21T12:12:07.172Z,79.24
2022-09-21T12:14:41.823Z,81.67
2022-09-21T12:17:13.166Z,83.59
2022-09-21T12:19:43.873Z,83.72
2022-09-21T12:22:17.773Z,84.97
2022-09-21T12:24:50.952Z,84.28
2022-09-21T12:27:26.725Z,82.89
2022-09-21T12:29:59.008Z,82.65
2022-09-21T12:32:38.377Z,79.06
2022-09-21T12:35:08.418Z,79.98
2022-09-21T12:37:39.314Z,81.02
2022-09-21T12:40:09.943Z,78.17
2022-09-21T12:42:41.532Z,78.96
2022-09-21T12:45:17.129Z,82.11
2022-09-21T12:47:53.338Z,81.60
2022-09-21T12:50:24.664Z,81.54
2022-09-21T12:52:54.528Z,79.65
2022-09-21T12:55:30.490Z,76.80
2022-09-21T12:58:15.104Z,78.48
2022-09-21T13:00:51.294Z,84.00
2022-09-21T13:03:22.388Z,83.30
2022-09-21T13:05:59.304Z,81.83
2022-09-21T13:08:28.691Z,84.12
2022-09-21T13:11:05.736Z,85.44
2022-09-21T13:13:35.321Z,83.43
2022-09-21T13:16:08.047Z,86.00
2022-09-21T13:18:37.713Z,85.72
2022-09-21T13:21:20.224Z,84.21
2022-09-21T13:23:53.611Z,84.91
2022-09-21T13:26:32.858Z,82.65
2022-09-21T13:29:04.173Z,82.35
2022-09-21T13:32:00.401Z,81.74
2022-09-21T13:34:30.561Z,82.13
2022-09-21T13:37:31.979Z,77.54
2022-09-21T13:40:35.426Z,78.30
2022-09-21T13:43:48.260Z,77.89
2022-09-21T13:46:56.313Z,76.95
2022-09-21T13:49:44.642Z,80.18
2022-09-21T13:52:32.428Z,81.08
2022-09-21T13:55:01.862Z,79.29
2022-09-21T13:57:34.644Z,75.49
2022-09-21T14:00:10.253Z,73.40
2022-09-21T14:02:44.345Z,73.24
2022-09-21T14:05:25.067Z,74.19
2022-09-21T14:07:58.924Z,80.48
2022-09-21T14:10:27.566Z,80.80
2022-09-21T14:12:57.589Z,82.04
2022-09-21T14:15:41.545Z,82.85
2022-09-21T14:18:22.996Z,83.07
2022-09-21T14:21:19.017Z,83.00
2022-09-21T14:24:30.222Z,81.95
2022-09-21T14:27:09.620Z,80.59
2022-09-21T14:29:44.624Z,81.43
2022-09-21T14:32:20.498Z,78.92
2022-09-21T14:34:49.758Z,81.82
2022-09-21T14:37:30.621Z,80.97
2022-09-21T14:40:01.822Z,80.96
2022-09-21T14:42:31.974Z,82.10
2022-09-21T14:45:04.055Z,80.36
2022-09-21T14:47:39.464Z,80.96
2022-09-21T14:50:35.037Z,84.26
2022-09-21T14:53:32.579Z,84.24
2022-09-21T14:56:21.233Z,85.66
2022-09-21T14:59:03.192Z,87.06
2022-09-21T15:01:41.455Z,86.40
2022-09-21T15:04:22.904Z,87.88
2022-09-21T15:07:08.872Z,85.78
2022-09-21T15:10:15.444Z,80.88
2022-09-21T15:12:47.757Z,86.79
2022-09-21T15:15:28.939Z,83.75
2022-09-21T15:18:02.007Z,83.88
2022-09-21T15:20:36.214Z,81.42
2022-09-21T15:23:19.836Z,83.89
2022-09-21T15:26:00.395Z,90.72
2022-09-21T15:28:58.024Z,90.63
2022-09-21T15:31:25.047Z,91.00
2022-09-21T15:33:53.833Z,90.79
2022-09-21T15:36:23.162Z,88.74
2022-09-21T15:38:52.040Z,92.36
2022-09-21T15:41:41.453Z,90.17
2022-09-21T15:44:16.224Z,92.07
2022-09-21T15:46:46.864Z,94.88
2022-09-21T15:49:18.363Z,97.61
2022-09-21T15:51:46.926Z,100.00
2022-09-21T15:54:22.876Z,100.00
2022-09-21T15:56:52.744Z,100.00
2022-09-21T15:59:22.296Z,100.00
2022-09-21T16:01:54.440Z,100.00
2022-09-21T16:04:23.565Z,100.00
2022-09-21T16:07:04.623Z,100.00
2022-09-21T16:09:41.812Z,100.00
2022-09-21T16:12:35.886Z,100.00
2022-09-21T16:15:06.901Z,100.00
2022-09-21T16:17:40.332Z,100.00
2022-09-21T16:20:20.538Z,100.00
2022-09-21T16:22:50.122Z,100.00
2022-09-21T16:25:34.383Z,100.00
2022-09-21T16:28:05.491Z,100.00
2022-09-21T16:30:48.811Z,100.00
2022-09-21T16:33:58.245Z,100.00
2022-09-21T16:36:41.970Z,100.00
2022-09-21T16:39:15.233Z,100.00
2022-09-21T16:41:56.249Z,100.00
2022-09-21T16:44:27.207Z,100.00
2022-09-21T16:46:58.296Z,100.00
2022-09-21T16:49:30.619Z,100.00
2022-09-21T16:51:59.747Z,100.00
2022-09-21T16:54:28.006Z,100.00
2022-09-21T16:56:57.545Z,100.00
2022-09-21T16:59:28.802Z,100.00
2022-09-21T17:02:00.674Z,100.00
2022-09-21T17:04:31.010Z,100.00
2022-09-21T17:07:01.108Z,100.00
2022-09-21T17:09:32.552Z,100.00
2022-09-21T17:12:02.771Z,100.00
2022-09-21T17:14:35.462Z,100.00
2022-09-21T17:17:05.892Z,100.00
2022-09-21T17:19:37.182Z,100.00
2022-09-21T17:22:07.851Z,100.00
2022-09-21T17:24:50.297Z,100.00
2022-09-21T17:27:21.570Z,100.00
2022-09-21T17:29:53.938Z,100.00
2022-09-21T17:32:43.280Z,100.00
2022-09-21T17:35:18.026Z,100.00
2022-09-21T17:37:46.596Z,100.00
2022-09-21T17:40:17.596Z,100.00
2022-09-21T17:42:48.714Z,100.00
2022-09-21T17:45:22.293Z,100.00
2022-09-21T17:47:52.085Z,100.00
2022-09-21T17:50:25.604Z,100.00
2022-09-21T17:53:12.084Z,100.00
2022-09-21T17:55:40.855Z,100.00
2022-09-21T17:58:21.198Z,100.00
2022-09-21T18:00:56.735Z,100.00
2022-09-21T18:03:26.240Z,100.00
2022-09-21T18:05:59.533Z,100.00
2022-09-21T18:08:32.138Z,100.00
2022-09-21T18:11:23.303Z,100.00
2022-09-21T18:13:56.394Z,100.00
2022-09-21T18:16:31.166Z,100.00
2022-09-21T18:19:07.579Z,100.00
2022-09-21T18:21:38.835Z,100.00
2022-09-21T18:24:21.084Z,100.00
2022-09-21T18:26:52.300Z,100.00
2022-09-21T18:29:40.838Z,100.00
2022-09-21T18:32:35.226Z,100.00
2022-09-21T18:35:10.649Z,100.00
2022-09-21T18:37:43.799Z,100.00
2022-09-21T18:40:26.586Z,100.00
2022-09-21T18:42:59.161Z,100.00
2022-09-21T18:45:30.001Z,100.00
2022-09-21T18:48:21.524Z,100.00
2022-09-21T18:50:55.353Z,100.00
2022-09-21T18:53:26.012Z,100.00
2022-09-21T18:55:55.374Z,100.00
2022-09-21T18:58:24.554Z,100.00
2022-09-21T19:00:53.487Z,100.00
2022-09-21T19:03:25.712Z,100.00
2022-09-21T19:06:02.017Z,100.00
2022-09-21T19:08:33.234Z,100.00
2022-09-21T19:11:03.340Z,100.00
2022-09-21T19:13:39.434Z,100.00
2022-09-21T19:16:12.765Z,100.00
2022-09-21T19:18:46.010Z,100.00
2022-09-21T19:21:21.656Z,100.00
2022-09-21T19:24:07.039Z,100.00
2022-09-21T19:26:40.927Z,100.00
2022-09-21T19:29:30.000Z,100.00
2022-09-21T19:31:59.209Z,100.00
2022-09-21T19:34:29.412Z,100.00
2022-09-21T19:37:01.614Z,100.00
2022-09-21T19:39:33.682Z,100.00
2022-09-21T19:42:10.133Z,100.00
2022-09-21T19:45:03.583Z,100.00
2022-09-21T19:47:39.193Z,100.00
2022-09-21T19:50:21.267Z,100.00
2022-09-21T19:52:50.932Z,100.00
2022-09-21T19:55:38.302Z,100.00
2022-09-21T19:58:24.784Z,100.00
2022-09-21T20:00:53.826Z,100.00
2022-09-21T20:03:31.272Z,100.00
2022-09-21T20:06:06.282Z,100.00
2022-09-21T20:08:37.990Z,100.00
2022-09-21T20:11:10.400Z,100.00
2022-09-21T20:14:06.426Z,100.00
2022-09-21T20:16:40.577Z,100.00
2022-09-21T20:19:17.510Z,100.00
2022-09-21T20:21:49.987Z,100.00
2022-09-21T20:24:22.537Z,100.00
2022-09-21T20:26:51.892Z,100.00
2022-09-21T20:29:21.986Z,100.00
2022-09-21T20:31:51.976Z,100.00
2022-09-21T20:34:20.857Z,100.00
2022-09-21T20:36:51.356Z,100.00
2022-09-21T20:39:19.723Z,100.00
2022-09-21T20:41:49.153Z,100.00
2022-09-21T20:44:18.207Z,100.00
2022-09-21T20:46:47.158Z,100.00
2022-09-21T20:49:16.287Z,100.00
2022-09-21T20:51:45.872Z,100.00
2022-09-21T20:54:17.355Z,100.00
2022-09-21T20:56:46.466Z,100.00
2022-09-21T20:59:14.995Z,100.00
2022-09-21T21:01:43.597Z,100.00
2022-09-21T21:04:13.195Z,100.00
2022-09-21T21:06:41.674Z,100.00
2022-09-21T21:09:10.547Z,100.00
2022-09-21T21:11:42.681Z,100.00
2022-09-21T21:14:13.373Z,100.00
2022-09-21T21:16:42.491Z,100.00
2022-09-21T21:19:11.239Z,100.00
2022-09-21T21:21:39.635Z,100.00
2022-09-21T21:24:25.705Z,100.00
2022-09-21T21:27:02.203Z,100.00
2022-09-21T21:29:31.395Z,100.00
2022-09-21T21:32:00.794Z,100.00
2022-09-21T21:34:30.277Z,100.00
2022-09-21T21:36:58.922Z,100.00
2022-09-21T21:39:27.296Z,100.00
2022-09-21T21:41:57.027Z,100.00
2022-09-21T21:44:25.333Z,100.00
2022-09-21T21:46:54.896Z,100.00
2022-09-21T21:49:23.709Z,100.00
2022-09-21T21:51:54.143Z,100.00
2022-09-21T21:54:27.032Z,100.00
2022-09-21T21:56:58.115Z,100.00
2022-09-21T21:59:27.251Z,100.00
2022-09-21T22:01:57.038Z,100.00
2022-09-21T22:04:28.039Z,100.00
2022-09-21T22:06:57.336Z,100.00
2022-09-21T22:09:27.068Z,100.00
2022-09-21T22:11:58.386Z,100.00
2022-09-21T22:14:28.700Z,100.00
2022-09-21T22:17:00.056Z,100.00
2022-09-21T22:19:29.455Z,100.00
2022-09-21T22:21:57.873Z,100.00
2022-09-21T22:24:26.880Z,100.00
2022-09-21T22:26:58.480Z,100.00
2022-09-21T22:29:26.893Z,100.00
2022-09-21T22:31:57.605Z,100.00
2022-09-21T22:34:26.795Z,100.00
2022-09-21T22:36:56.551Z,100.00
2022-09-21T22:39:26.916Z,100.00
2022-09-21T22:41:55.598Z,100.00
2022-09-21T22:44:25.678Z,100.00
2022-09-21T22:46:55.027Z,100.00
2022-09-21T22:49:23.835Z,100.00
2022-09-21T22:51:55.084Z,100.00
2022-09-21T22:54:26.736Z,100.00
2022-09-21T22:56:55.051Z,100.00
2022-09-21T22:59:25.350Z,100.00
2022-09-21T23:01:56.546Z,100.00
2022-09-21T23:04:26.066Z,100.00
2022-09-21T23:06:56.401Z,100.00
2022-09-21T23:09:26.140Z,100.00
2022-09-21T23:11:54.575Z,100.00
2022-09-21T23:14:24.711Z,100.00
2022-09-21T23:16:53.524Z,100.00
2022-09-21T23:19:23.832Z,100.00
2022-09-21T23:21:52.973Z,100.00
2022-09-21T23:24:21.887Z,100.00
2022-09-21T23:26:51.800Z,100.00
2022-09-21T23:29:20.580Z,100.00
2022-09-21T23:31:51.048Z,100.00
2022-09-21T23:34:19.514Z,100.00
2022-09-21T23:36:48.079Z,100.00
2022-09-21T23:39:17.189Z,100.00
2022-09-21T23:41:45.629Z,100.00
2022-09-21T23:44:13.953Z,100.00
2022-09-21T23:46:42.699Z,100.00
2022-09-21T23:49:12.804Z,100.00
2022-09-21T23:51:42.181Z,100.00
2022-09-21T23:54:10.916Z,100.00
2022-09-21T23:56:39.501Z,100.00
2022-09-21T23:59:08.610Z,100.00
